createdAt,value
2023-05-06T00:01:36.573Z,2.83
2023-05-06T00:04:04.724Z,3.65
2023-05-06T00:06:32.812Z,3.05
2023-05-06T00:09:01.902Z,2.80
2023-05-06T00:11:29.834Z,2.88
2023-05-06T00:13:57.886Z,2.80
2023-05-06T00:16:25.758Z,2.10
2023-05-06T00:18:53.585Z,2.72
2023-05-06T00:21:21.393Z,2.22
2023-05-06T00:23:49.242Z,2.55
2023-05-06T00:26:18.359Z,2.42
2023-05-06T00:28:46.219Z,2.00
2023-05-06T00:31:14.121Z,1.98
2023-05-06T00:33:42.157Z,2.33
2023-05-06T00:36:10.403Z,2.35
2023-05-06T00:38:38.344Z,2.15
2023-05-06T00:41:06.639Z,2.28
2023-05-06T00:43:35.849Z,2.13
2023-05-06T00:46:04.217Z,2.58
2023-05-06T00:48:32.280Z,2.15
2023-05-06T00:51:00.662Z,2.50
2023-05-06T00:53:28.508Z,2.30
2023-05-06T00:55:58.733Z,3.00
2023-05-06T00:58:26.509Z,2.05
2023-05-06T01:00:56.466Z,2.33
2023-05-06T01:03:24.436Z,2.40
2023-05-06T01:06:12.471Z,2.30
2023-05-06T01:08:48.298Z,1.90
2023-05-06T01:11:21.506Z,2.45
2023-05-06T01:13:57.427Z,1.88
2023-05-06T01:16:30.859Z,2.35
2023-05-06T01:19:00.395Z,2.30
2023-05-06T01:21:34.905Z,2.25
2023-05-06T01:24:04.276Z,2.20
2023-05-06T01:26:32.123Z,2.10
2023-05-06T01:29:01.967Z,2.50
2023-05-06T01:31:41.282Z,2.30
2023-05-06T01:34:18.622Z,2.72
2023-05-06T01:37:00.586Z,2.30
2023-05-06T01:39:32.872Z,2.60
2023-05-06T01:42:02.477Z,1.80
2023-05-06T01:44:35.000Z,2.30
2023-05-06T01:47:03.522Z,1.60
2023-05-06T01:49:31.488Z,2.40
2023-05-06T01:51:59.309Z,1.70
2023-05-06T01:54:27.074Z,2.20
2023-05-06T01:56:56.469Z,2.30
2023-05-06T01:59:27.586Z,2.50
2023-05-06T02:01:59.286Z,2.35
2023-05-06T02:04:27.312Z,1.55
2023-05-06T02:06:55.165Z,2.20
2023-05-06T02:09:23.098Z,2.25
2023-05-06T02:11:59.620Z,2.15
2023-05-06T02:14:27.443Z,2.63
2023-05-06T02:16:56.299Z,2.97
2023-05-06T02:19:24.042Z,2.90
2023-05-06T02:21:54.034Z,2.20
2023-05-06T02:24:21.946Z,2.20
2023-05-06T02:26:49.731Z,2.78
2023-05-06T02:29:18.905Z,2.22
2023-05-06T02:31:46.828Z,2.10
2023-05-06T02:34:17.310Z,2.70
2023-05-06T02:36:45.225Z,2.67
2023-05-06T02:39:13.155Z,2.80
2023-05-06T02:41:41.090Z,2.33
2023-05-06T02:44:08.885Z,3.00
2023-05-06T02:46:38.676Z,3.10
2023-05-06T02:49:06.513Z,2.88
2023-05-06T02:51:34.312Z,2.53
2023-05-06T02:54:02.418Z,2.22
2023-05-06T02:56:31.164Z,2.50
2023-05-06T02:58:59.088Z,3.33
2023-05-06T03:01:26.909Z,2.78
2023-05-06T03:03:56.346Z,2.75
2023-05-06T03:06:24.182Z,2.92
2023-05-06T03:08:52.098Z,3.40
2023-05-06T03:11:19.897Z,3.15
2023-05-06T03:13:47.847Z,3.10
2023-05-06T03:16:15.912Z,3.83
2023-05-06T03:18:47.310Z,4.00
2023-05-06T03:21:17.465Z,3.90
2023-05-06T03:23:47.588Z,3.85
2023-05-06T03:26:16.479Z,3.60
2023-05-06T03:28:45.596Z,3.90
2023-05-06T03:31:15.609Z,3.92
2023-05-06T03:33:43.609Z,4.50
2023-05-06T03:36:14.048Z,3.83
2023-05-06T03:38:45.192Z,3.47
2023-05-06T03:41:13.950Z,4.65
2023-05-06T03:43:42.349Z,4.00
2023-05-06T03:46:11.705Z,3.20
2023-05-06T03:48:40.644Z,3.58
2023-05-06T03:51:12.460Z,3.40
2023-05-06T03:53:40.402Z,3.97
2023-05-06T03:56:10.174Z,4.15
2023-05-06T03:58:39.754Z,4.03
2023-05-06T04:01:10.097Z,3.90
2023-05-06T04:03:38.137Z,3.17
2023-05-06T04:06:07.056Z,4.40
2023-05-06T04:08:37.150Z,4.28
2023-05-06T04:11:06.052Z,4.63
2023-05-06T04:13:35.856Z,4.50
2023-05-06T04:16:09.678Z,3.85
2023-05-06T04:18:41.594Z,4.33
2023-05-06T04:21:12.858Z,5.07
2023-05-06T04:23:44.187Z,3.58
2023-05-06T04:26:15.497Z,4.53
2023-05-06T04:28:46.696Z,4.03
2023-05-06T04:31:15.649Z,4.30
2023-05-06T04:33:46.431Z,3.73
2023-05-06T04:36:20.938Z,4.70
2023-05-06T04:39:11.531Z,4.90
2023-05-06T04:41:42.664Z,4.70
2023-05-06T04:44:14.151Z,4.88
2023-05-06T04:46:46.229Z,5.03
2023-05-06T04:49:15.114Z,3.80
2023-05-06T04:51:43.048Z,4.60
2023-05-06T04:54:11.786Z,3.70
2023-05-06T04:56:41.572Z,2.93
2023-05-06T04:59:11.592Z,3.10
2023-05-06T05:01:42.441Z,2.90
2023-05-06T05:04:11.355Z,3.30
2023-05-06T05:06:39.268Z,3.70
2023-05-06T05:09:07.193Z,2.40
2023-05-06T05:11:40.000Z,4.17
2023-05-06T05:14:08.002Z,4.80
2023-05-06T05:16:36.170Z,3.67
2023-05-06T05:19:09.067Z,3.33
2023-05-06T05:21:37.765Z,4.90
2023-05-06T05:24:07.203Z,3.50
2023-05-06T05:26:36.209Z,4.70
2023-05-06T05:29:04.336Z,3.83
2023-05-06T05:31:33.534Z,4.78
2023-05-06T05:34:01.658Z,4.40
2023-05-06T05:36:33.753Z,4.60
2023-05-06T05:39:05.007Z,4.60
2023-05-06T05:41:35.591Z,3.40
2023-05-06T05:44:03.684Z,5.00
2023-05-06T05:46:31.544Z,3.53
2023-05-06T05:48:59.633Z,4.32
2023-05-06T05:51:29.790Z,4.00
2023-05-06T05:54:00.304Z,3.43
2023-05-06T05:56:29.072Z,2.70
2023-05-06T05:58:57.009Z,3.08
2023-05-06T06:01:25.698Z,3.17
2023-05-06T06:03:55.680Z,2.20
2023-05-06T06:06:24.279Z,2.10
2023-05-06T06:08:53.529Z,1.70
2023-05-06T06:11:25.405Z,2.03
2023-05-06T06:13:53.217Z,1.60
2023-05-06T06:16:21.122Z,1.48
2023-05-06T06:18:49.965Z,2.28
2023-05-06T06:21:17.819Z,1.77
2023-05-06T06:23:46.163Z,2.78
2023-05-06T06:26:14.531Z,1.80
2023-05-06T06:28:44.661Z,2.00
2023-05-06T06:31:12.816Z,2.08
2023-05-06T06:33:40.888Z,2.17
2023-05-06T06:36:09.592Z,1.85
2023-05-06T06:38:38.612Z,1.88
2023-05-06T06:41:06.679Z,2.25
2023-05-06T06:43:34.548Z,2.35
2023-05-06T06:46:10.008Z,2.20
2023-05-06T06:48:37.994Z,2.70
2023-05-06T06:51:06.373Z,2.58
2023-05-06T06:53:34.193Z,2.10
2023-05-06T06:56:04.224Z,2.50
2023-05-06T06:58:34.250Z,2.08
2023-05-06T07:01:02.032Z,2.58
2023-05-06T07:03:31.460Z,2.17
2023-05-06T07:05:59.301Z,3.05
2023-05-06T07:08:27.280Z,2.78
2023-05-06T07:10:55.505Z,3.00
2023-05-06T07:13:23.956Z,2.70
2023-05-06T07:15:51.834Z,2.30
2023-05-06T07:18:19.897Z,2.17
2023-05-06T07:20:49.232Z,2.33
2023-05-06T07:23:19.255Z,2.38
2023-05-06T07:25:50.964Z,2.55
2023-05-06T07:28:21.141Z,2.63
2023-05-06T07:30:58.554Z,2.10
2023-05-06T07:33:26.465Z,2.47
2023-05-06T07:35:55.837Z,2.22
2023-05-06T07:38:25.354Z,2.22
2023-05-06T07:40:53.503Z,1.50
2023-05-06T07:43:22.997Z,2.05
2023-05-06T07:45:51.129Z,1.60
2023-05-06T07:48:20.164Z,1.70
2023-05-06T07:50:48.225Z,1.40
2023-05-06T07:53:17.383Z,1.67
2023-05-06T07:55:45.255Z,1.83
2023-05-06T07:58:14.023Z,1.77
2023-05-06T08:00:41.941Z,1.45
2023-05-06T08:03:09.963Z,1.70
2023-05-06T08:05:37.960Z,1.50
2023-05-06T08:08:06.403Z,1.63
2023-05-06T08:10:35.741Z,1.33
2023-05-06T08:13:04.159Z,1.42
2023-05-06T08:15:33.051Z,1.23
2023-05-06T08:18:13.670Z,1.58
2023-05-06T08:20:46.061Z,1.40
2023-05-06T08:23:13.887Z,1.58
2023-05-06T08:25:43.091Z,1.02
2023-05-06T08:28:10.964Z,1.65
2023-05-06T08:30:38.881Z,1.40
2023-05-06T08:33:07.649Z,1.50
2023-05-06T08:35:35.801Z,1.52
2023-05-06T08:38:03.684Z,1.40
2023-05-06T08:40:33.677Z,1.50
2023-05-06T08:43:04.428Z,1.80
2023-05-06T08:45:38.329Z,1.63
2023-05-06T08:48:08.522Z,1.23
2023-05-06T08:50:45.937Z,1.17
2023-05-06T08:53:15.864Z,1.00
2023-05-06T08:55:44.426Z,1.40
2023-05-06T08:58:15.764Z,1.52
2023-05-06T09:00:44.412Z,1.10
2023-05-06T09:03:12.306Z,1.20
2023-05-06T09:05:40.290Z,1.23
2023-05-06T09:08:08.158Z,1.20
2023-05-06T09:10:43.928Z,1.20
2023-05-06T09:13:14.980Z,0.93
2023-05-06T09:15:43.549Z,1.00
2023-05-06T09:18:12.151Z,1.27
2023-05-06T09:20:42.842Z,1.30
2023-05-06T09:23:12.211Z,0.90
2023-05-06T09:25:40.303Z,1.15
2023-05-06T09:28:10.135Z,1.00
2023-05-06T09:30:42.168Z,0.90
2023-05-06T09:33:10.522Z,1.00
2023-05-06T09:35:39.883Z,0.90
2023-05-06T09:38:09.287Z,1.00
2023-05-06T09:40:38.040Z,1.10
2023-05-06T09:43:06.228Z,1.00
2023-05-06T09:45:34.349Z,0.93
2023-05-06T09:48:03.630Z,1.00
2023-05-06T09:50:34.448Z,1.20
2023-05-06T09:53:05.593Z,1.10
2023-05-06T09:55:34.400Z,1.23
2023-05-06T09:58:04.259Z,1.00
2023-05-06T10:00:32.981Z,1.00
2023-05-06T10:03:03.186Z,0.88
2023-05-06T10:05:33.207Z,1.20
2023-05-06T10:08:04.255Z,0.90
2023-05-06T10:10:33.239Z,0.90
2023-05-06T10:13:03.733Z,0.80
2023-05-06T10:15:33.390Z,1.00
2023-05-06T10:18:04.236Z,1.00
2023-05-06T10:20:35.172Z,0.80
2023-05-06T10:23:11.000Z,0.73
2023-05-06T10:25:40.967Z,1.10
2023-05-06T10:28:26.268Z,0.90
2023-05-06T10:30:59.406Z,0.90
2023-05-06T10:33:29.710Z,1.00
2023-05-06T10:36:08.854Z,0.98
2023-05-06T10:38:41.581Z,0.82
2023-05-06T10:41:10.772Z,0.98
2023-05-06T10:43:42.212Z,0.95
2023-05-06T10:46:11.434Z,1.10
2023-05-06T10:49:01.494Z,1.10
2023-05-06T10:51:29.866Z,1.25
2023-05-06T10:54:02.257Z,0.82
2023-05-06T10:56:32.165Z,1.20
2023-05-06T10:59:07.872Z,1.10
2023-05-06T11:01:37.295Z,1.00
2023-05-06T11:04:14.060Z,0.80
2023-05-06T11:06:44.478Z,1.20
2023-05-06T11:09:18.924Z,1.00
2023-05-06T11:12:01.795Z,1.20
2023-05-06T11:14:35.303Z,1.27
2023-05-06T11:17:05.028Z,1.02
2023-05-06T11:19:35.534Z,1.27
2023-05-06T11:22:05.365Z,1.33
2023-05-06T11:24:39.960Z,1.73
2023-05-06T11:27:09.176Z,1.40
2023-05-06T11:29:37.797Z,1.00
2023-05-06T11:32:06.708Z,1.48
2023-05-06T11:34:36.769Z,1.20
2023-05-06T11:37:06.710Z,1.13
2023-05-06T11:39:40.436Z,1.40
2023-05-06T11:42:09.444Z,1.45
2023-05-06T11:44:39.522Z,1.50
2023-05-06T11:47:08.718Z,1.67
2023-05-06T11:49:39.142Z,1.48
2023-05-06T11:52:07.555Z,1.40
2023-05-06T11:54:36.642Z,1.73
2023-05-06T11:57:04.601Z,1.50
2023-05-06T11:59:33.472Z,1.38
2023-05-06T12:02:03.886Z,1.40
2023-05-06T12:04:40.543Z,1.42
2023-05-06T12:07:10.047Z,1.30
2023-05-06T12:09:39.765Z,1.40
2023-05-06T12:12:09.537Z,1.40
2023-05-06T12:14:38.295Z,1.40
2023-05-06T12:17:06.719Z,1.50
2023-05-06T12:19:34.748Z,1.50
2023-05-06T12:22:20.780Z,1.23
2023-05-06T12:24:49.452Z,1.48
2023-05-06T12:27:32.844Z,1.40
2023-05-06T12:30:00.815Z,1.67
2023-05-06T12:32:28.684Z,1.30
2023-05-06T12:34:56.557Z,1.30
2023-05-06T12:37:31.140Z,1.38
2023-05-06T12:40:07.769Z,1.60
2023-05-06T12:42:35.811Z,1.30
2023-05-06T12:45:15.404Z,1.20
2023-05-06T12:47:53.899Z,1.25
2023-05-06T12:50:36.125Z,1.20
2023-05-06T12:53:06.495Z,1.20
2023-05-06T12:55:35.076Z,1.05
2023-05-06T12:58:03.085Z,1.30
2023-05-06T13:00:32.931Z,1.20
2023-05-06T13:03:01.381Z,1.10
2023-05-06T13:05:29.316Z,1.02
2023-05-06T13:07:57.163Z,1.00
2023-05-06T13:10:26.618Z,1.08
2023-05-06T13:13:02.926Z,1.40
2023-05-06T13:15:31.092Z,1.50
2023-05-06T13:17:59.379Z,0.95
2023-05-06T13:20:27.450Z,1.20
2023-05-06T13:22:55.511Z,1.23
2023-05-06T13:25:23.463Z,1.42
2023-05-06T13:27:53.511Z,1.30
2023-05-06T13:30:21.646Z,1.23
2023-05-06T13:32:49.658Z,1.27
2023-05-06T13:35:17.611Z,1.30
2023-05-06T13:37:47.923Z,1.15
2023-05-06T13:40:16.663Z,1.30
2023-05-06T13:42:44.538Z,1.58
2023-05-06T13:45:13.812Z,1.08
2023-05-06T13:47:43.170Z,1.45
2023-05-06T13:50:11.893Z,0.75
2023-05-06T13:52:39.849Z,1.38
2023-05-06T13:55:09.740Z,1.20
2023-05-06T13:57:38.013Z,1.40
2023-05-06T14:00:07.985Z,1.20
2023-05-06T14:02:37.346Z,1.20
2023-05-06T14:05:06.229Z,1.15
2023-05-06T14:07:34.129Z,1.10
2023-05-06T14:10:01.967Z,0.80
2023-05-06T14:12:29.898Z,1.00
2023-05-06T14:14:58.060Z,1.08
2023-05-06T14:17:26.026Z,1.00
2023-05-06T14:19:55.299Z,1.10
2023-05-06T14:22:25.982Z,0.93
2023-05-06T14:24:53.921Z,1.10
2023-05-06T14:27:22.066Z,1.15
2023-05-06T14:29:49.970Z,0.90
2023-05-06T14:32:17.832Z,0.80
2023-05-06T14:34:48.251Z,1.20
2023-05-06T14:37:17.550Z,1.10
2023-05-06T14:39:45.338Z,1.20
2023-05-06T14:42:21.116Z,1.05
2023-05-06T14:44:53.335Z,1.02
2023-05-06T14:47:21.633Z,1.27
2023-05-06T14:49:50.390Z,0.80
2023-05-06T14:52:19.648Z,0.90
2023-05-06T14:54:53.283Z,1.00
2023-05-06T14:57:23.893Z,0.77
2023-05-06T14:59:52.197Z,1.15
2023-05-06T15:02:20.042Z,0.93
2023-05-06T15:04:48.537Z,0.95
2023-05-06T15:07:22.219Z,1.10
2023-05-06T15:09:51.203Z,1.30
2023-05-06T15:12:19.119Z,1.00
2023-05-06T15:14:49.038Z,0.65
2023-05-06T15:17:16.964Z,1.00
2023-05-06T15:19:44.724Z,1.10
2023-05-06T15:22:12.747Z,1.00
2023-05-06T15:24:42.002Z,1.00
2023-05-06T15:27:14.063Z,0.90
2023-05-06T15:29:42.090Z,0.80
2023-05-06T15:32:10.176Z,0.60
2023-05-06T15:34:40.710Z,0.70
2023-05-06T15:37:08.533Z,0.98
2023-05-06T15:39:38.200Z,0.70
2023-05-06T15:42:07.705Z,0.85
2023-05-06T15:44:37.531Z,0.70
2023-05-06T15:47:08.133Z,0.80
2023-05-06T15:49:51.633Z,0.80
2023-05-06T15:52:22.644Z,0.80
2023-05-06T15:54:57.505Z,0.90
2023-05-06T15:57:30.937Z,0.90
2023-05-06T15:59:58.861Z,0.65
2023-05-06T16:02:27.674Z,1.00
2023-05-06T16:04:55.939Z,1.10
2023-05-06T16:07:24.105Z,0.90
2023-05-06T16:09:51.933Z,1.88
2023-05-06T16:12:19.810Z,1.17
2023-05-06T16:14:48.941Z,0.80
2023-05-06T16:17:18.715Z,1.20
2023-05-06T16:19:49.593Z,1.70
2023-05-06T16:22:17.480Z,1.58
2023-05-06T16:24:46.255Z,1.10
2023-05-06T16:27:16.898Z,0.90
2023-05-06T16:29:45.595Z,0.90
2023-05-06T16:32:20.208Z,0.55
2023-05-06T16:34:48.027Z,0.88
2023-05-06T16:37:17.183Z,0.80
2023-05-06T16:39:44.960Z,0.70
2023-05-06T16:42:15.557Z,0.70
2023-05-06T16:44:44.237Z,0.95
2023-05-06T16:47:12.372Z,0.80
2023-05-06T16:49:41.769Z,0.70
2023-05-06T16:52:09.645Z,1.02
2023-05-06T16:54:37.868Z,0.95
2023-05-06T16:57:08.548Z,0.82
2023-05-06T16:59:36.522Z,1.15
2023-05-06T17:02:05.024Z,0.70
2023-05-06T17:04:32.946Z,0.90
2023-05-06T17:07:05.635Z,1.10
2023-05-06T17:09:35.736Z,1.13
2023-05-06T17:12:03.887Z,0.80
2023-05-06T17:14:31.852Z,0.80
2023-05-06T17:17:03.926Z,0.82
2023-05-06T17:19:31.974Z,1.10
2023-05-06T17:21:59.847Z,0.68
2023-05-06T17:24:31.343Z,0.80
2023-05-06T17:26:59.420Z,0.85
2023-05-06T17:29:27.467Z,0.88
2023-05-06T17:31:55.315Z,0.70
2023-05-06T17:34:23.149Z,0.98
2023-05-06T17:36:51.059Z,1.00
2023-05-06T17:39:18.963Z,1.10
2023-05-06T17:41:48.230Z,0.77
2023-05-06T17:44:17.460Z,1.13
2023-05-06T17:46:46.433Z,1.30
2023-05-06T17:49:14.387Z,1.38
2023-05-06T17:51:46.021Z,1.25
2023-05-06T17:54:13.890Z,1.77
2023-05-06T17:56:50.077Z,1.80
2023-05-06T17:59:21.097Z,1.48
2023-05-06T18:01:49.257Z,1.40
2023-05-06T18:04:17.274Z,1.10
2023-05-06T18:06:45.632Z,1.10
2023-05-06T18:09:13.541Z,1.20
2023-05-06T18:11:42.279Z,1.20
2023-05-06T18:14:11.136Z,1.90
2023-05-06T18:16:40.474Z,1.83
2023-05-06T18:19:08.457Z,1.60
2023-05-06T18:21:39.126Z,1.40
2023-05-06T18:24:15.830Z,1.70
2023-05-06T18:26:46.050Z,2.20
2023-05-06T18:29:14.629Z,1.70
2023-05-06T18:31:44.142Z,1.58
2023-05-06T18:34:12.314Z,1.30
2023-05-06T18:36:40.249Z,1.40
2023-05-06T18:39:08.316Z,1.10
2023-05-06T18:41:36.383Z,1.60
2023-05-06T18:44:04.909Z,1.50
2023-05-06T18:46:35.220Z,1.60
2023-05-06T18:49:04.571Z,2.00
2023-05-06T18:51:32.766Z,1.70
2023-05-06T18:54:02.954Z,1.50
2023-05-06T18:56:31.718Z,1.60
2023-05-06T18:58:59.699Z,1.52
2023-05-06T19:01:27.653Z,1.90
2023-05-06T19:03:56.459Z,1.70
2023-05-06T19:06:25.759Z,1.52
2023-05-06T19:08:53.851Z,1.15
2023-05-06T19:11:21.766Z,1.58
2023-05-06T19:13:51.162Z,1.88
2023-05-06T19:16:19.215Z,2.50
2023-05-06T19:18:47.909Z,1.88
2023-05-06T19:21:16.062Z,1.92
2023-05-06T19:23:45.450Z,1.80
2023-05-06T19:26:13.260Z,1.60
2023-05-06T19:28:41.866Z,1.67
2023-05-06T19:31:11.193Z,1.73
2023-05-06T19:33:39.979Z,1.50
2023-05-06T19:36:08.847Z,1.85
2023-05-06T19:38:36.744Z,1.58
2023-05-06T19:41:06.168Z,1.40
2023-05-06T19:43:34.040Z,1.70
2023-05-06T19:46:02.047Z,1.70
2023-05-06T19:48:34.811Z,1.73
2023-05-06T19:51:04.023Z,1.70
2023-05-06T19:53:34.667Z,1.85
2023-05-06T19:56:10.852Z,1.70
2023-05-06T19:58:41.473Z,1.70
2023-05-06T20:01:09.919Z,1.67
2023-05-06T20:03:37.970Z,2.00
2023-05-06T20:06:06.181Z,1.90
2023-05-06T20:08:34.756Z,1.55
2023-05-06T20:11:06.025Z,1.50
2023-05-06T20:13:35.343Z,1.80
2023-05-06T20:16:03.391Z,1.75
2023-05-06T20:18:31.884Z,1.65
2023-05-06T20:20:59.866Z,2.67
2023-05-06T20:23:27.685Z,2.17
2023-05-06T20:25:55.676Z,2.30
2023-05-06T20:28:23.455Z,1.98
2023-05-06T20:30:52.729Z,1.85
2023-05-06T20:33:20.635Z,1.90
2023-05-06T20:35:48.431Z,2.00
2023-05-06T20:38:16.904Z,2.03
2023-05-06T20:40:44.763Z,1.70
2023-05-06T20:43:12.631Z,1.60
2023-05-06T20:45:40.741Z,2.17
2023-05-06T20:48:10.004Z,2.22
2023-05-06T20:50:38.402Z,3.17
2023-05-06T20:53:06.435Z,4.90
2023-05-06T20:55:34.482Z,3.28
2023-05-06T20:58:02.364Z,2.88
2023-05-06T21:00:33.013Z,2.47
2023-05-06T21:03:01.330Z,2.35
2023-05-06T21:05:30.599Z,2.80
2023-05-06T21:07:58.437Z,2.35
2023-05-06T21:10:26.330Z,2.20
2023-05-06T21:12:54.259Z,2.58
2023-05-06T21:15:22.128Z,2.53
2023-05-06T21:17:50.176Z,3.03
2023-05-06T21:20:19.376Z,3.83
2023-05-06T21:22:49.375Z,3.13
2023-05-06T21:25:17.278Z,2.03
2023-05-06T21:27:45.138Z,2.40
2023-05-06T21:30:13.720Z,2.53
2023-05-06T21:32:41.651Z,3.65
2023-05-06T21:35:10.265Z,3.13
2023-05-06T21:37:38.301Z,3.78
2023-05-06T21:40:11.210Z,3.58
2023-05-06T21:42:39.177Z,3.67
2023-05-06T21:45:08.304Z,3.17
2023-05-06T21:47:36.369Z,3.85
2023-05-06T21:50:04.222Z,5.65
2023-05-06T21:52:32.015Z,3.58
2023-05-06T21:55:00.412Z,4.20
2023-05-06T21:57:29.578Z,4.10
2023-05-06T21:59:57.421Z,4.22
2023-05-06T22:02:25.445Z,4.60
2023-05-06T22:04:53.562Z,4.82
2023-05-06T22:07:21.743Z,3.63
2023-05-06T22:09:49.820Z,3.25
2023-05-06T22:12:17.746Z,3.95
2023-05-06T22:14:47.156Z,3.63
2023-05-06T22:17:15.757Z,3.70
2023-05-06T22:19:43.658Z,4.53
2023-05-06T22:22:12.049Z,3.88
2023-05-06T22:24:40.499Z,4.90
2023-05-06T22:27:08.383Z,3.88
2023-05-06T22:29:36.257Z,3.80
2023-05-06T22:32:08.436Z,5.20
2023-05-06T22:34:36.402Z,5.47
2023-05-06T22:37:09.582Z,6.15
2023-05-06T22:39:37.318Z,4.15
2023-05-06T22:42:05.351Z,3.70
2023-05-06T22:44:33.329Z,5.13
2023-05-06T22:47:01.392Z,3.97
2023-05-06T22:49:30.577Z,5.30
2023-05-06T22:51:58.532Z,3.83
2023-05-06T22:54:26.523Z,5.15
2023-05-06T22:56:54.395Z,4.57
2023-05-06T22:59:22.136Z,3.80
2023-05-06T23:01:49.981Z,5.43
2023-05-06T23:04:18.030Z,4.53
2023-05-06T23:06:47.253Z,4.90
2023-05-06T23:09:15.128Z,5.15
2023-05-06T23:11:43.318Z,5.40
2023-05-06T23:14:11.052Z,5.35
2023-05-06T23:16:38.978Z,4.45
2023-05-06T23:19:06.980Z,5.28
2023-05-06T23:21:34.761Z,4.57
2023-05-06T23:24:03.978Z,5.60
2023-05-06T23:26:31.756Z,4.53
2023-05-06T23:28:59.524Z,5.03
2023-05-06T23:31:27.389Z,5.47
2023-05-06T23:33:55.209Z,5.37
2023-05-06T23:36:23.101Z,5.00
2023-05-06T23:38:50.932Z,4.70
2023-05-06T23:41:20.132Z,5.25
2023-05-06T23:43:47.833Z,5.25
2023-05-06T23:46:15.823Z,5.70
2023-05-06T23:48:43.716Z,4.90
2023-05-06T23:51:11.633Z,4.72
2023-05-06T23:53:40.203Z,5.18
2023-05-06T23:56:08.798Z,4.45
2023-05-06T23:58:38.025Z,5.75
